sensor_id;sensor_type;location;lat;lon;timestamp;temperature;humidity
9375;DHT22;4727;51.202;6.344;2022-07-09T00:01:37;17.60;99.90
9375;DHT22;4727;51.202;6.344;2022-07-09T00:04:02;17.60;99.90
9375;DHT22;4727;51.202;6.344;2022-07-09T00:06:28;17.60;99.90
9375;DHT22;4727;51.202;6.344;2022-07-09T00:08:54;17.60;99.90
9375;DHT22;4727;51.202;6.344;2022-07-09T00:11:19;17.60;99.90
9375;DHT22;4727;51.202;6.344;2022-07-09T00:13:45;17.50;99.90
9375;DHT22;4727;51.202;6.344;2022-07-09T00:16:11;17.60;99.90
9375;DHT22;4727;51.202;6.344;2022-07-09T00:18:36;17.60;99.90
9375;DHT22;4727;51.202;6.344;2022-07-09T00:21:02;17.60;99.90
9375;DHT22;4727;51.202;6.344;2022-07-09T00:23:27;17.50;99.90
9375;DHT22;4727;51.202;6.344;2022-07-09T00:25:53;17.50;99.90
9375;DHT22;4727;51.202;6.344;2022-07-09T00:28:19;17.50;99.90
9375;DHT22;4727;51.202;6.344;2022-07-09T00:30:44;17.50;99.90
9375;DHT22;4727;51.202;6.344;2022-07-09T00:33:10;17.50;99.90
9375;DHT22;4727;51.202;6.344;2022-07-09T00:35:35;17.50;99.90
9375;DHT22;4727;51.202;6.344;2022-07-09T00:38:01;17.50;99.90
9375;DHT22;4727;51.202;6.344;2022-07-09T00:40:27;17.50;99.90
9375;DHT22;4727;51.202;6.344;2022-07-09T00:42:52;17.40;99.90
9375;DHT22;4727;51.202;6.344;2022-07-09T00:45:18;17.40;99.90
9375;DHT22;4727;51.202;6.344;2022-07-09T00:47:43;17.40;99.90
9375;DHT22;4727;51.202;6.344;2022-07-09T00:50:09;17.40;99.90
9375;DHT22;4727;51.202;6.344;2022-07-09T00:52:37;17.30;99.90
9375;DHT22;4727;51.202;6.344;2022-07-09T00:55:03;17.30;99.90
9375;DHT22;4727;51.202;6.344;2022-07-09T00:57:31;17.30;99.90
9375;DHT22;4727;51.202;6.344;2022-07-09T00:59:57;17.20;99.90
9375;DHT22;4727;51.202;6.344;2022-07-09T01:02:24;17.20;99.90
9375;DHT22;4727;51.202;6.344;2022-07-09T01:04:50;17.20;99.90
9375;DHT22;4727;51.202;6.344;2022-07-09T01:07:15;17.20;99.90
9375;DHT22;4727;51.202;6.344;2022-07-09T01:09:41;17.20;99.90
9375;DHT22;4727;51.202;6.344;2022-07-09T01:12:07;17.20;99.90
9375;DHT22;4727;51.202;6.344;2022-07-09T01:14:33;17.20;99.90
9375;DHT22;4727;51.202;6.344;2022-07-09T01:17:00;17.20;99.90
9375;DHT22;4727;51.202;6.344;2022-07-09T01:19:28;17.10;99.90
9375;DHT22;4727;51.202;6.344;2022-07-09T01:21:54;17.20;99.90
9375;DHT22;4727;51.202;6.344;2022-07-09T01:24:20;17.10;99.90
9375;DHT22;4727;51.202;6.344;2022-07-09T01:26:46;17.10;99.90
9375;DHT22;4727;51.202;6.344;2022-07-09T01:29:12;17.10;99.90
9375;DHT22;4727;51.202;6.344;2022-07-09T01:31:38;17.00;99.90
9375;DHT22;4727;51.202;6.344;2022-07-09T01:34:03;17.00;99.90
9375;DHT22;4727;51.202;6.344;2022-07-09T01:36:29;17.00;99.90
9375;DHT22;4727;51.202;6.344;2022-07-09T01:38:54;17.00;99.90
9375;DHT22;4727;51.202;6.344;2022-07-09T01:41:20;16.90;99.90
9375;DHT22;4727;51.202;6.344;2022-07-09T01:43:46;16.90;99.90
9375;DHT22;4727;51.202;6.344;2022-07-09T01:46:11;16.90;99.90
9375;DHT22;4727;51.202;6.344;2022-07-09T01:48:37;16.90;99.90
9375;DHT22;4727;51.202;6.344;2022-07-09T01:51:04;16.90;99.90
9375;DHT22;4727;51.202;6.344;2022-07-09T01:53:29;16.80;99.90
9375;DHT22;4727;51.202;6.344;2022-07-09T01:55:55;16.80;99.90
9375;DHT22;4727;51.202;6.344;2022-07-09T01:58:21;16.80;99.90
9375;DHT22;4727;51.202;6.344;2022-07-09T02:00:46;16.80;99.90
9375;DHT22;4727;51.202;6.344;2022-07-09T02:03:13;16.80;99.90
9375;DHT22;4727;51.202;6.344;2022-07-09T02:05:38;16.70;99.90
9375;DHT22;4727;51.202;6.344;2022-07-09T02:08:04;16.70;99.90
9375;DHT22;4727;51.202;6.344;2022-07-09T02:10:29;16.70;99.90
9375;DHT22;4727;51.202;6.344;2022-07-09T02:12:55;16.70;99.90
9375;DHT22;4727;51.202;6.344;2022-07-09T02:15:21;16.70;99.90
9375;DHT22;4727;51.202;6.344;2022-07-09T02:17:47;16.70;99.90
9375;DHT22;4727;51.202;6.344;2022-07-09T02:20:13;16.70;99.90
9375;DHT22;4727;51.202;6.344;2022-07-09T02:22:38;16.70;99.90
9375;DHT22;4727;51.202;6.344;2022-07-09T02:25:04;16.60;99.90
9375;DHT22;4727;51.202;6.344;2022-07-09T02:27:31;16.60;99.90
9375;DHT22;4727;51.202;6.344;2022-07-09T02:29:56;16.60;99.90
9375;DHT22;4727;51.202;6.344;2022-07-09T02:32:22;16.50;99.90
9375;DHT22;4727;51.202;6.344;2022-07-09T02:34:47;16.50;99.90
9375;DHT22;4727;51.202;6.344;2022-07-09T02:37:13;16.40;99.90
9375;DHT22;4727;51.202;6.344;2022-07-09T02:39:38;16.30;99.90
9375;DHT22;4727;51.202;6.344;2022-07-09T02:42:04;16.30;99.90
9375;DHT22;4727;51.202;6.344;2022-07-09T02:44:30;16.20;99.90
9375;DHT22;4727;51.202;6.344;2022-07-09T02:46:55;16.20;99.90
9375;DHT22;4727;51.202;6.344;2022-07-09T02:49:21;16.20;99.90
9375;DHT22;4727;51.202;6.344;2022-07-09T02:51:48;16.10;99.90
9375;DHT22;4727;51.202;6.344;2022-07-09T02:54:14;16.10;99.90
9375;DHT22;4727;51.202;6.344;2022-07-09T02:56:39;16.10;99.90
9375;DHT22;4727;51.202;6.344;2022-07-09T02:59:05;16.10;99.90
9375;DHT22;4727;51.202;6.344;2022-07-09T03:01:31;16.10;99.90
9375;DHT22;4727;51.202;6.344;2022-07-09T03:03:56;15.90;99.90
9375;DHT22;4727;51.202;6.344;2022-07-09T03:06:22;16.00;99.90
9375;DHT22;4727;51.202;6.344;2022-07-09T03:08:48;16.00;99.90
9375;DHT22;4727;51.202;6.344;2022-07-09T03:11:14;16.00;99.90
9375;DHT22;4727;51.202;6.344;2022-07-09T03:13:39;16.00;99.90
9375;DHT22;4727;51.202;6.344;2022-07-09T03:16:05;15.90;99.90
9375;DHT22;4727;51.202;6.344;2022-07-09T03:18:32;15.90;99.90
9375;DHT22;4727;51.202;6.344;2022-07-09T03:20:57;15.90;99.90
9375;DHT22;4727;51.202;6.344;2022-07-09T03:23:23;15.90;99.90
9375;DHT22;4727;51.202;6.344;2022-07-09T03:25:48;15.70;99.90
9375;DHT22;4727;51.202;6.344;2022-07-09T03:28:14;15.60;99.90
9375;DHT22;4727;51.202;6.344;2022-07-09T03:30:39;15.60;99.90
9375;DHT22;4727;51.202;6.344;2022-07-09T03:33:05;15.70;99.90
9375;DHT22;4727;51.202;6.344;2022-07-09T03:35:31;15.70;99.90
9375;DHT22;4727;51.202;6.344;2022-07-09T03:37:56;15.70;99.90
9375;DHT22;4727;51.202;6.344;2022-07-09T03:40:22;15.60;99.90
9375;DHT22;4727;51.202;6.344;2022-07-09T03:42:48;15.60;99.90
9375;DHT22;4727;51.202;6.344;2022-07-09T03:45:13;15.50;99.90
9375;DHT22;4727;51.202;6.344;2022-07-09T03:47:39;15.50;99.90
9375;DHT22;4727;51.202;6.344;2022-07-09T03:50:05;15.50;99.90
9375;DHT22;4727;51.202;6.344;2022-07-09T03:52:31;15.50;99.90
9375;DHT22;4727;51.202;6.344;2022-07-09T03:54:57;15.50;99.90
9375;DHT22;4727;51.202;6.344;2022-07-09T03:57:23;15.60;99.90
9375;DHT22;4727;51.202;6.344;2022-07-09T03:59:48;15.50;99.90
9375;DHT22;4727;51.202;6.344;2022-07-09T04:02:14;15.50;99.90
9375;DHT22;4727;51.202;6.344;2022-07-09T04:04:40;15.50;99.90
9375;DHT22;4727;51.202;6.344;2022-07-09T04:07:06;15.50;99.90
9375;DHT22;4727;51.202;6.344;2022-07-09T04:09:32;15.50;99.90
9375;DHT22;4727;51.202;6.344;2022-07-09T04:11:57;15.50;99.90
9375;DHT22;4727;51.202;6.344;2022-07-09T04:14:23;15.50;99.90
9375;DHT22;4727;51.202;6.344;2022-07-09T04:16:48;15.40;99.90
9375;DHT22;4727;51.202;6.344;2022-07-09T04:19:14;15.40;99.90
9375;DHT22;4727;51.202;6.344;2022-07-09T04:21:39;15.30;99.90
9375;DHT22;4727;51.202;6.344;2022-07-09T04:24:05;15.30;99.90
9375;DHT22;4727;51.202;6.344;2022-07-09T04:26:31;15.40;99.90
9375;DHT22;4727;51.202;6.344;2022-07-09T04:28:56;15.40;99.90
9375;DHT22;4727;51.202;6.344;2022-07-09T04:31:22;15.40;99.90
9375;DHT22;4727;51.202;6.344;2022-07-09T04:33:48;15.50;99.90
9375;DHT22;4727;51.202;6.344;2022-07-09T04:36:13;15.40;99.90
9375;DHT22;4727;51.202;6.344;2022-07-09T04:38:39;15.40;99.90
9375;DHT22;4727;51.202;6.344;2022-07-09T04:41:05;15.50;99.90
9375;DHT22;4727;51.202;6.344;2022-07-09T04:43:31;15.50;99.90
9375;DHT22;4727;51.202;6.344;2022-07-09T04:45:57;15.50;99.90
9375;DHT22;4727;51.202;6.344;2022-07-09T04:48:22;15.60;99.90
9375;DHT22;4727;51.202;6.344;2022-07-09T04:50:49;15.60;99.90
9375;DHT22;4727;51.202;6.344;2022-07-09T04:53:14;15.60;99.90
9375;DHT22;4727;51.202;6.344;2022-07-09T04:55:40;15.70;99.90
9375;DHT22;4727;51.202;6.344;2022-07-09T04:58:05;15.80;99.90
9375;DHT22;4727;51.202;6.344;2022-07-09T05:00:31;15.90;99.90
9375;DHT22;4727;51.202;6.344;2022-07-09T05:02:58;15.80;99.90
9375;DHT22;4727;51.202;6.344;2022-07-09T05:05:24;15.90;99.90
9375;DHT22;4727;51.202;6.344;2022-07-09T05:07:51;15.90;99.90
9375;DHT22;4727;51.202;6.344;2022-07-09T05:10:17;15.90;99.90
9375;DHT22;4727;51.202;6.344;2022-07-09T05:12:43;15.80;99.90
9375;DHT22;4727;51.202;6.344;2022-07-09T05:15:09;16.10;99.90
9375;DHT22;4727;51.202;6.344;2022-07-09T05:17:36;15.90;99.90
9375;DHT22;4727;51.202;6.344;2022-07-09T05:20:07;15.90;99.90
9375;DHT22;4727;51.202;6.344;2022-07-09T05:22:34;16.00;99.90
9375;DHT22;4727;51.202;6.344;2022-07-09T05:25:00;16.10;99.90
9375;DHT22;4727;51.202;6.344;2022-07-09T05:27:27;16.10;99.90
9375;DHT22;4727;51.202;6.344;2022-07-09T05:29:53;16.20;99.90
9375;DHT22;4727;51.202;6.344;2022-07-09T05:32:19;16.20;99.90
9375;DHT22;4727;51.202;6.344;2022-07-09T05:34:45;16.30;99.90
9375;DHT22;4727;51.202;6.344;2022-07-09T05:37:11;16.40;99.90
9375;DHT22;4727;51.202;6.344;2022-07-09T05:39:36;16.50;99.90
9375;DHT22;4727;51.202;6.344;2022-07-09T05:42:02;16.60;99.90
9375;DHT22;4727;51.202;6.344;2022-07-09T05:44:28;16.60;99.90
9375;DHT22;4727;51.202;6.344;2022-07-09T05:46:54;16.70;99.90
9375;DHT22;4727;51.202;6.344;2022-07-09T05:49:19;16.80;99.90
9375;DHT22;4727;51.202;6.344;2022-07-09T05:51:45;16.80;99.90
9375;DHT22;4727;51.202;6.344;2022-07-09T05:54:10;16.80;99.90
9375;DHT22;4727;51.202;6.344;2022-07-09T05:56:36;16.90;99.90
9375;DHT22;4727;51.202;6.344;2022-07-09T05:59:03;17.10;99.90
9375;DHT22;4727;51.202;6.344;2022-07-09T06:01:28;17.00;99.90
9375;DHT22;4727;51.202;6.344;2022-07-09T06:03:54;17.00;99.90
9375;DHT22;4727;51.202;6.344;2022-07-09T06:06:20;17.10;99.90
9375;DHT22;4727;51.202;6.344;2022-07-09T06:08:45;17.20;99.90
9375;DHT22;4727;51.202;6.344;2022-07-09T06:11:11;17.20;99.90
9375;DHT22;4727;51.202;6.344;2022-07-09T06:13:37;17.20;99.90
9375;DHT22;4727;51.202;6.344;2022-07-09T06:16:03;17.30;99.90
9375;DHT22;4727;51.202;6.344;2022-07-09T06:18:29;17.40;99.90
9375;DHT22;4727;51.202;6.344;2022-07-09T06:20:54;17.50;99.90
9375;DHT22;4727;51.202;6.344;2022-07-09T06:23:20;17.70;99.90
9375;DHT22;4727;51.202;6.344;2022-07-09T06:25:47;17.70;99.90
9375;DHT22;4727;51.202;6.344;2022-07-09T06:28:12;17.70;99.90
9375;DHT22;4727;51.202;6.344;2022-07-09T06:30:38;17.80;99.90
9375;DHT22;4727;51.202;6.344;2022-07-09T06:33:04;17.80;99.90
9375;DHT22;4727;51.202;6.344;2022-07-09T06:35:29;17.90;99.90
9375;DHT22;4727;51.202;6.344;2022-07-09T06:37:56;17.90;99.90
9375;DHT22;4727;51.202;6.344;2022-07-09T06:40:22;18.00;99.90
9375;DHT22;4727;51.202;6.344;2022-07-09T06:42:48;18.10;99.90
9375;DHT22;4727;51.202;6.344;2022-07-09T06:45:13;18.20;99.90
9375;DHT22;4727;51.202;6.344;2022-07-09T06:47:40;18.30;99.90
9375;DHT22;4727;51.202;6.344;2022-07-09T06:50:06;18.30;99.90
9375;DHT22;4727;51.202;6.344;2022-07-09T06:52:32;18.40;99.90
9375;DHT22;4727;51.202;6.344;2022-07-09T06:54:57;18.50;99.90
9375;DHT22;4727;51.202;6.344;2022-07-09T06:57:23;18.50;99.90
9375;DHT22;4727;51.202;6.344;2022-07-09T06:59:48;18.50;99.90
9375;DHT22;4727;51.202;6.344;2022-07-09T07:02:14;18.70;99.90
9375;DHT22;4727;51.202;6.344;2022-07-09T07:04:41;18.70;99.90
9375;DHT22;4727;51.202;6.344;2022-07-09T07:07:07;18.90;99.90
9375;DHT22;4727;51.202;6.344;2022-07-09T07:09:33;19.00;99.90
9375;DHT22;4727;51.202;6.344;2022-07-09T07:12:01;19.00;99.90
9375;DHT22;4727;51.202;6.344;2022-07-09T07:14:53;19.10;99.90
9375;DHT22;4727;51.202;6.344;2022-07-09T07:17:22;19.20;99.90
9375;DHT22;4727;51.202;6.344;2022-07-09T07:19:48;19.30;99.90
9375;DHT22;4727;51.202;6.344;2022-07-09T07:22:14;19.30;99.90
9375;DHT22;4727;51.202;6.344;2022-07-09T07:24:40;19.40;99.90
9375;DHT22;4727;51.202;6.344;2022-07-09T07:27:05;19.40;99.90
9375;DHT22;4727;51.202;6.344;2022-07-09T07:29:31;19.40;99.90
9375;DHT22;4727;51.202;6.344;2022-07-09T07:31:57;19.30;99.90
9375;DHT22;4727;51.202;6.344;2022-07-09T07:34:23;19.30;99.90
9375;DHT22;4727;51.202;6.344;2022-07-09T07:36:50;19.50;99.90
9375;DHT22;4727;51.202;6.344;2022-07-09T07:39:17;19.50;99.90
9375;DHT22;4727;51.202;6.344;2022-07-09T07:41:43;19.60;99.90
9375;DHT22;4727;51.202;6.344;2022-07-09T07:44:08;19.60;99.90
9375;DHT22;4727;51.202;6.344;2022-07-09T07:46:34;19.60;99.90
9375;DHT22;4727;51.202;6.344;2022-07-09T07:48:59;19.70;99.90
9375;DHT22;4727;51.202;6.344;2022-07-09T07:51:25;19.80;99.90
9375;DHT22;4727;51.202;6.344;2022-07-09T07:53:51;19.90;99.90
9375;DHT22;4727;51.202;6.344;2022-07-09T07:56:16;20.00;99.90
9375;DHT22;4727;51.202;6.344;2022-07-09T07:58:45;20.10;99.90
9375;DHT22;4727;51.202;6.344;2022-07-09T08:01:11;20.10;99.90
9375;DHT22;4727;51.202;6.344;2022-07-09T08:03:37;19.90;99.90
9375;DHT22;4727;51.202;6.344;2022-07-09T08:06:02;20.10;99.90
9375;DHT22;4727;51.202;6.344;2022-07-09T08:08:28;20.20;99.90
9375;DHT22;4727;51.202;6.344;2022-07-09T08:10:54;20.30;99.90
9375;DHT22;4727;51.202;6.344;2022-07-09T08:13:19;20.40;99.90
9375;DHT22;4727;51.202;6.344;2022-07-09T08:15:45;20.50;99.90
9375;DHT22;4727;51.202;6.344;2022-07-09T08:18:11;20.50;99.90
9375;DHT22;4727;51.202;6.344;2022-07-09T08:20:40;20.50;99.90
9375;DHT22;4727;51.202;6.344;2022-07-09T08:23:06;20.50;99.90
9375;DHT22;4727;51.202;6.344;2022-07-09T08:25:32;20.50;99.90
9375;DHT22;4727;51.202;6.344;2022-07-09T08:27:58;20.50;99.90
9375;DHT22;4727;51.202;6.344;2022-07-09T08:30:24;20.50;99.90
9375;DHT22;4727;51.202;6.344;2022-07-09T08:32:49;20.70;99.90
9375;DHT22;4727;51.202;6.344;2022-07-09T08:35:15;20.80;99.90
9375;DHT22;4727;51.202;6.344;2022-07-09T08:37:41;20.80;99.90
9375;DHT22;4727;51.202;6.344;2022-07-09T08:40:07;20.90;99.90
9375;DHT22;4727;51.202;6.344;2022-07-09T08:42:33;20.90;99.90
9375;DHT22;4727;51.202;6.344;2022-07-09T08:44:59;21.00;99.90
9375;DHT22;4727;51.202;6.344;2022-07-09T08:47:25;21.10;99.90
9375;DHT22;4727;51.202;6.344;2022-07-09T08:49:55;21.10;99.90
9375;DHT22;4727;51.202;6.344;2022-07-09T08:52:23;21.10;99.90
9375;DHT22;4727;51.202;6.344;2022-07-09T08:54:50;21.10;99.90
9375;DHT22;4727;51.202;6.344;2022-07-09T08:57:17;21.10;99.90
9375;DHT22;4727;51.202;6.344;2022-07-09T08:59:42;21.00;99.90
9375;DHT22;4727;51.202;6.344;2022-07-09T09:02:08;21.00;99.90
9375;DHT22;4727;51.202;6.344;2022-07-09T09:04:35;21.10;99.90
9375;DHT22;4727;51.202;6.344;2022-07-09T09:07:23;21.10;99.90
9375;DHT22;4727;51.202;6.344;2022-07-09T09:09:48;21.30;99.90
9375;DHT22;4727;51.202;6.344;2022-07-09T09:12:14;21.40;99.90
9375;DHT22;4727;51.202;6.344;2022-07-09T09:14:48;21.50;99.90
9375;DHT22;4727;51.202;6.344;2022-07-09T09:17:15;21.60;99.90
9375;DHT22;4727;51.202;6.344;2022-07-09T09:19:40;21.70;99.90
9375;DHT22;4727;51.202;6.344;2022-07-09T09:22:07;21.80;99.90
9375;DHT22;4727;51.202;6.344;2022-07-09T09:24:33;21.70;99.90
9375;DHT22;4727;51.202;6.344;2022-07-09T09:27:02;21.80;99.90
9375;DHT22;4727;51.202;6.344;2022-07-09T09:29:28;22.00;99.90
9375;DHT22;4727;51.202;6.344;2022-07-09T09:31:55;22.10;99.90
9375;DHT22;4727;51.202;6.344;2022-07-09T09:34:21;22.30;99.90
9375;DHT22;4727;51.202;6.344;2022-07-09T09:36:51;22.30;99.90
9375;DHT22;4727;51.202;6.344;2022-07-09T09:41:47;22.10;99.90
9375;DHT22;4727;51.202;6.344;2022-07-09T09:44:18;22.10;99.90
9375;DHT22;4727;51.202;6.344;2022-07-09T09:46:45;22.00;99.90
9375;DHT22;4727;51.202;6.344;2022-07-09T09:49:13;22.10;99.90
9375;DHT22;4727;51.202;6.344;2022-07-09T09:54:21;22.40;99.90
9375;DHT22;4727;51.202;6.344;2022-07-09T09:56:48;22.50;99.90
9375;DHT22;4727;51.202;6.344;2022-07-09T09:59:15;22.50;99.90
9375;DHT22;4727;51.202;6.344;2022-07-09T10:01:42;22.60;99.90
9375;DHT22;4727;51.202;6.344;2022-07-09T10:04:12;22.70;99.90
9375;DHT22;4727;51.202;6.344;2022-07-09T10:06:39;22.60;99.90
9375;DHT22;4727;51.202;6.344;2022-07-09T10:09:05;22.50;99.90
9375;DHT22;4727;51.202;6.344;2022-07-09T10:11:42;22.50;99.90
9375;DHT22;4727;51.202;6.344;2022-07-09T10:14:15;22.70;99.90
9375;DHT22;4727;51.202;6.344;2022-07-09T10:16:41;22.70;99.90
9375;DHT22;4727;51.202;6.344;2022-07-09T10:19:07;22.60;99.90
9375;DHT22;4727;51.202;6.344;2022-07-09T10:24:03;22.80;99.90
9375;DHT22;4727;51.202;6.344;2022-07-09T10:29:24;22.80;99.90
9375;DHT22;4727;51.202;6.344;2022-07-09T10:31:52;22.80;99.90
9375;DHT22;4727;51.202;6.344;2022-07-09T10:37:01;22.80;99.90
9375;DHT22;4727;51.202;6.344;2022-07-09T10:39:27;22.80;99.90
9375;DHT22;4727;51.202;6.344;2022-07-09T10:42:04;22.90;99.90
9375;DHT22;4727;51.202;6.344;2022-07-09T10:44:37;23.00;99.90
9375;DHT22;4727;51.202;6.344;2022-07-09T10:47:06;23.20;99.90
9375;DHT22;4727;51.202;6.344;2022-07-09T10:49:35;23.10;99.90
9375;DHT22;4727;51.202;6.344;2022-07-09T10:52:02;23.00;99.90
9375;DHT22;4727;51.202;6.344;2022-07-09T10:54:28;23.00;99.90
9375;DHT22;4727;51.202;6.344;2022-07-09T10:56:54;23.00;99.90
9375;DHT22;4727;51.202;6.344;2022-07-09T10:59:21;23.20;99.90
9375;DHT22;4727;51.202;6.344;2022-07-09T11:01:47;23.30;99.90
9375;DHT22;4727;51.202;6.344;2022-07-09T11:04:30;23.50;99.90
9375;DHT22;4727;51.202;6.344;2022-07-09T11:06:56;23.40;99.90
9375;DHT22;4727;51.202;6.344;2022-07-09T11:09:25;23.20;99.90
9375;DHT22;4727;51.202;6.344;2022-07-09T11:11:53;23.20;99.90
9375;DHT22;4727;51.202;6.344;2022-07-09T11:14:19;23.20;99.90
9375;DHT22;4727;51.202;6.344;2022-07-09T11:16:57;23.20;99.90
9375;DHT22;4727;51.202;6.344;2022-07-09T11:19:26;23.20;99.90
9375;DHT22;4727;51.202;6.344;2022-07-09T11:22:02;23.20;99.90
9375;DHT22;4727;51.202;6.344;2022-07-09T11:24:29;23.30;99.90
9375;DHT22;4727;51.202;6.344;2022-07-09T11:26:55;23.20;99.90
9375;DHT22;4727;51.202;6.344;2022-07-09T11:29:20;23.10;99.90
9375;DHT22;4727;51.202;6.344;2022-07-09T11:31:51;23.00;99.90
9375;DHT22;4727;51.202;6.344;2022-07-09T11:34:18;22.90;99.90
9375;DHT22;4727;51.202;6.344;2022-07-09T11:36:51;23.00;99.90
9375;DHT22;4727;51.202;6.344;2022-07-09T11:39:31;22.90;99.90
9375;DHT22;4727;51.202;6.344;2022-07-09T11:41:58;23.00;99.90
9375;DHT22;4727;51.202;6.344;2022-07-09T11:44:29;23.00;99.90
9375;DHT22;4727;51.202;6.344;2022-07-09T11:47:11;23.10;99.90
9375;DHT22;4727;51.202;6.344;2022-07-09T11:49:43;23.00;99.90
9375;DHT22;4727;51.202;6.344;2022-07-09T11:52:25;23.00;99.90
9375;DHT22;4727;51.202;6.344;2022-07-09T11:55:07;23.10;99.90
9375;DHT22;4727;51.202;6.344;2022-07-09T11:57:35;23.10;99.90
9375;DHT22;4727;51.202;6.344;2022-07-09T12:00:20;23.20;99.90
9375;DHT22;4727;51.202;6.344;2022-07-09T12:02:46;23.40;99.90
9375;DHT22;4727;51.202;6.344;2022-07-09T12:05:11;23.50;99.90
9375;DHT22;4727;51.202;6.344;2022-07-09T12:07:37;23.60;99.90
9375;DHT22;4727;51.202;6.344;2022-07-09T12:10:08;23.70;99.90
9375;DHT22;4727;51.202;6.344;2022-07-09T12:12:35;23.70;99.90
9375;DHT22;4727;51.202;6.344;2022-07-09T12:15:02;23.40;99.90
9375;DHT22;4727;51.202;6.344;2022-07-09T12:17:29;23.00;99.90
9375;DHT22;4727;51.202;6.344;2022-07-09T12:19:57;22.80;99.90
9375;DHT22;4727;51.202;6.344;2022-07-09T12:22:23;22.70;99.90
9375;DHT22;4727;51.202;6.344;2022-07-09T12:24:53;22.70;99.90
9375;DHT22;4727;51.202;6.344;2022-07-09T12:27:19;22.40;99.90
9375;DHT22;4727;51.202;6.344;2022-07-09T12:29:47;22.30;99.90
9375;DHT22;4727;51.202;6.344;2022-07-09T12:32:13;22.20;99.90
9375;DHT22;4727;51.202;6.344;2022-07-09T12:34:39;22.10;99.90
9375;DHT22;4727;51.202;6.344;2022-07-09T12:37:05;22.00;99.90
9375;DHT22;4727;51.202;6.344;2022-07-09T12:39:31;21.80;99.90
9375;DHT22;4727;51.202;6.344;2022-07-09T12:41:57;21.60;99.90
9375;DHT22;4727;51.202;6.344;2022-07-09T12:44:24;21.40;99.90
9375;DHT22;4727;51.202;6.344;2022-07-09T12:46:50;21.30;99.90
9375;DHT22;4727;51.202;6.344;2022-07-09T12:49:16;21.40;99.90
9375;DHT22;4727;51.202;6.344;2022-07-09T12:51:42;21.70;99.90
9375;DHT22;4727;51.202;6.344;2022-07-09T12:54:08;22.00;99.90
9375;DHT22;4727;51.202;6.344;2022-07-09T12:56:33;22.10;99.90
9375;DHT22;4727;51.202;6.344;2022-07-09T12:58:59;22.20;99.90
9375;DHT22;4727;51.202;6.344;2022-07-09T13:01:24;22.40;99.90
9375;DHT22;4727;51.202;6.344;2022-07-09T13:03:50;22.70;99.90
9375;DHT22;4727;51.202;6.344;2022-07-09T13:06:16;22.90;99.90
9375;DHT22;4727;51.202;6.344;2022-07-09T13:08:57;23.40;99.90
9375;DHT22;4727;51.202;6.344;2022-07-09T13:11:23;23.60;99.90
9375;DHT22;4727;51.202;6.344;2022-07-09T13:13:49;23.70;99.90
9375;DHT22;4727;51.202;6.344;2022-07-09T13:16:15;23.90;99.90
9375;DHT22;4727;51.202;6.344;2022-07-09T13:18:40;24.10;99.90
9375;DHT22;4727;51.202;6.344;2022-07-09T13:21:06;24.10;99.90
9375;DHT22;4727;51.202;6.344;2022-07-09T13:23:32;24.10;99.90
9375;DHT22;4727;51.202;6.344;2022-07-09T13:25:58;23.80;99.90
9375;DHT22;4727;51.202;6.344;2022-07-09T13:28:24;24.10;99.90
9375;DHT22;4727;51.202;6.344;2022-07-09T13:30:50;24.40;99.90
9375;DHT22;4727;51.202;6.344;2022-07-09T13:33:16;24.70;99.90
9375;DHT22;4727;51.202;6.344;2022-07-09T13:35:42;24.80;99.90
9375;DHT22;4727;51.202;6.344;2022-07-09T13:38:07;24.80;99.90
9375;DHT22;4727;51.202;6.344;2022-07-09T13:40:33;24.80;99.90
9375;DHT22;4727;51.202;6.344;2022-07-09T13:42:59;24.90;99.90
9375;DHT22;4727;51.202;6.344;2022-07-09T13:45:25;24.80;99.90
9375;DHT22;4727;51.202;6.344;2022-07-09T13:47:59;24.80;99.90
9375;DHT22;4727;51.202;6.344;2022-07-09T13:50:24;24.70;99.90
9375;DHT22;4727;51.202;6.344;2022-07-09T13:52:50;24.60;99.90
9375;DHT22;4727;51.202;6.344;2022-07-09T13:55:16;24.60;99.90
9375;DHT22;4727;51.202;6.344;2022-07-09T13:57:42;24.50;99.90
9375;DHT22;4727;51.202;6.344;2022-07-09T14:00:08;24.20;99.90
9375;DHT22;4727;51.202;6.344;2022-07-09T14:02:35;24.30;99.90
9375;DHT22;4727;51.202;6.344;2022-07-09T14:05:03;24.50;99.90
9375;DHT22;4727;51.202;6.344;2022-07-09T14:07:29;24.90;99.60
9375;DHT22;4727;51.202;6.344;2022-07-09T14:09:55;25.10;96.60
9375;DHT22;4727;51.202;6.344;2022-07-09T14:12:21;25.40;94.60
9375;DHT22;4727;51.202;6.344;2022-07-09T14:14:50;25.40;72.10
9375;DHT22;4727;51.202;6.344;2022-07-09T14:17:16;25.60;66.70
9375;DHT22;4727;51.202;6.344;2022-07-09T14:19:42;25.40;52.30
9375;DHT22;4727;51.202;6.344;2022-07-09T14:22:08;25.30;60.80
9375;DHT22;4727;51.202;6.344;2022-07-09T14:24:33;25.20;57.00
9375;DHT22;4727;51.202;6.344;2022-07-09T14:26:59;25.10;52.90
9375;DHT22;4727;51.202;6.344;2022-07-09T14:29:25;25.00;44.30
9375;DHT22;4727;51.202;6.344;2022-07-09T14:31:51;25.20;47.00
9375;DHT22;4727;51.202;6.344;2022-07-09T14:34:16;25.30;41.80
9375;DHT22;4727;51.202;6.344;2022-07-09T14:36:42;24.60;25.80
9375;DHT22;4727;51.202;6.344;2022-07-09T14:39:07;24.40;30.20
9375;DHT22;4727;51.202;6.344;2022-07-09T14:41:35;24.60;39.50
9375;DHT22;4727;51.202;6.344;2022-07-09T14:44:01;25.00;32.70
9375;DHT22;4727;51.202;6.344;2022-07-09T14:46:27;25.50;43.20
9375;DHT22;4727;51.202;6.344;2022-07-09T14:48:53;25.70;32.30
9375;DHT22;4727;51.202;6.344;2022-07-09T14:51:19;25.80;20.40
9375;DHT22;4727;51.202;6.344;2022-07-09T14:53:44;25.80;15.10
9375;DHT22;4727;51.202;6.344;2022-07-09T14:56:10;26.00;8.50
9375;DHT22;4727;51.202;6.344;2022-07-09T14:58:36;26.10;5.00
9375;DHT22;4727;51.202;6.344;2022-07-09T15:01:03;25.70;1.00
9375;DHT22;4727;51.202;6.344;2022-07-09T15:03:29;25.50;1.00
9375;DHT22;4727;51.202;6.344;2022-07-09T15:05:55;25.40;1.00
9375;DHT22;4727;51.202;6.344;2022-07-09T15:08:20;25.20;1.00
9375;DHT22;4727;51.202;6.344;2022-07-09T15:10:46;25.10;1.00
9375;DHT22;4727;51.202;6.344;2022-07-09T15:13:11;25.10;1.00
9375;DHT22;4727;51.202;6.344;2022-07-09T15:15:37;25.50;1.00
9375;DHT22;4727;51.202;6.344;2022-07-09T15:18:03;25.80;1.00
9375;DHT22;4727;51.202;6.344;2022-07-09T15:20:29;26.00;1.00
9375;DHT22;4727;51.202;6.344;2022-07-09T15:22:58;26.20;1.00
9375;DHT22;4727;51.202;6.344;2022-07-09T15:25:25;26.20;1.00
9375;DHT22;4727;51.202;6.344;2022-07-09T15:27:52;25.70;1.00
9375;DHT22;4727;51.202;6.344;2022-07-09T15:30:17;25.40;1.00
9375;DHT22;4727;51.202;6.344;2022-07-09T15:32:45;25.50;1.00
9375;DHT22;4727;51.202;6.344;2022-07-09T15:35:11;25.50;1.00
9375;DHT22;4727;51.202;6.344;2022-07-09T15:37:38;25.00;1.00
9375;DHT22;4727;51.202;6.344;2022-07-09T15:40:04;25.00;1.00
9375;DHT22;4727;51.202;6.344;2022-07-09T15:42:30;24.90;1.00
9375;DHT22;4727;51.202;6.344;2022-07-09T15:44:55;25.30;1.00
9375;DHT22;4727;51.202;6.344;2022-07-09T15:47:21;25.40;1.00
9375;DHT22;4727;51.202;6.344;2022-07-09T15:49:47;25.60;1.00
9375;DHT22;4727;51.202;6.344;2022-07-09T15:52:12;25.60;1.00
9375;DHT22;4727;51.202;6.344;2022-07-09T15:54:38;25.50;1.00
9375;DHT22;4727;51.202;6.344;2022-07-09T15:57:04;25.50;1.00
9375;DHT22;4727;51.202;6.344;2022-07-09T15:59:29;25.10;1.00
9375;DHT22;4727;51.202;6.344;2022-07-09T16:01:55;25.30;1.00
9375;DHT22;4727;51.202;6.344;2022-07-09T16:04:20;25.20;1.00
9375;DHT22;4727;51.202;6.344;2022-07-09T16:06:46;25.40;1.00
9375;DHT22;4727;51.202;6.344;2022-07-09T16:09:12;25.50;1.00
9375;DHT22;4727;51.202;6.344;2022-07-09T16:11:37;25.30;1.00